Warm Springs Summit, Nevada Weather observations

Data are for observation ending at time listed.
 Day   Time    Ave.   Ave.  Ave.  Vector   Max.   Stn.    Total    Solar   Ave.  
  of    of     Air    Rel.  Wind   Wind    Wind   Baro.  Precip.   Rad.    Soil  
Year   Day     Temp.  Hum.  Speed  Dir.    Gust   Pres.                    Temp. 
2014   (PST)    F      %     mph   deg.    mph     mb.     in.     W/m2     F   
------------------------------------------------------------------------------
 202   20:10   69.0    19   20.7   215     31.1   777.2    0.00       0    79.8
 202   20:20   68.9    20   21.6   214     32.6   777.2    0.00       0    79.7
 202   20:30   68.7    20   20.9   214     29.0   777.4    0.00       0    79.6
 202   20:40   68.5    20   18.8   215     24.6   777.5    0.00       0    79.4
 202   20:50   68.1    21   16.0   212     21.2   777.6    0.00       0    79.3
 202   21:00   68.1    21   14.0   216     20.8   777.8    0.00       0    79.2
 202   21:10   67.9    21   13.5   221     19.5   777.8    0.00       0    79.0
 202   21:20   67.9    21   14.6   227     20.6   777.8    0.00       0    78.9
 202   21:30   67.7    22   13.4   226     18.8   777.8    0.00       0    78.7
 202   21:40   67.8    21   16.3   222     21.0   777.8    0.00       0    78.6
 202   21:50   67.7    22   16.8   228     21.6   777.8    0.00       0    78.5
 202   22:00   67.5    22   16.6   228     19.6   777.8    0.00       0    78.3
 202   22:10   67.4    22   18.0   226     20.7   777.7    0.00       0    78.2
 202   22:20   67.5    22   18.6   228     22.8   777.6    0.00       0    78.0
 202   22:30   67.2    22   16.7   232     20.4   777.7    0.00       0    77.9
 202   22:40   67.5    21   16.8   227     21.7   777.7    0.00       0    77.8
 202   22:50   67.4    21   16.1   236     19.2   777.7    0.00       0    77.6
 202   23:00   67.2    21   17.2   239     21.2   777.7    0.00       0    77.5
 202   23:10   67.1    21   16.5   237     19.9   777.7    0.00       0    77.3
 202   23:20   67.0    22   16.8   236     21.5   777.7    0.00       0    77.2
 202   23:30   66.9    22   15.0   231     18.7   777.8    0.00       0    77.1
 202   23:40   66.6    22   14.2   233     17.4   777.8    0.00       0    76.9
 202   23:50   66.7    22   13.2   229     18.1   777.8    0.00       0    76.8
 203    0:00   66.6    22   10.6   218     15.5   777.8    0.00       0    76.7
 203    0:10   66.7    22    8.2   214     14.5   777.9    0.00       0    76.5
 203    0:20   66.5    22    9.7   222     13.3   777.9    0.00       0    76.4
 203    0:30   66.5    22    9.5   218     12.5   777.9    0.00       0    76.3
 203    0:40   66.3    22    6.2   222     10.4   778.0    0.00       0    76.2
 203    0:50   65.5    24    6.6   229      9.0   778.0    0.00       0    76.0
 203    1:00   65.3    24    5.0   209      6.9   778.1    0.00       0    75.9
 203    1:10   65.2    24    3.6   226      7.2   778.2    0.00       0    75.8
 203    1:20   65.4    24    5.4   252      8.4   778.2    0.00       0    75.7
 203    1:30   65.5    24    5.6   193      7.6   778.3    0.00       0    75.5
 203    1:40   65.0    25    2.2   225      5.0   778.3    0.00       0    75.4
 203    1:50   64.7    26    8.0   251     13.3   778.3    0.00       0    75.3
 203    2:00   63.9    27   11.4   238     13.9   778.3    0.00       0    75.2
 203    2:10   64.1    27   14.5   238     21.2   778.2    0.00       0    75.0
 203    2:20   64.4    27   17.8   234     24.7   778.1    0.00       0    74.9
 203    2:30   64.4    27   18.2   234     23.4   778.1    0.00       0    74.8
 203    2:40   64.2    27   19.7   229     26.1   778.1    0.00       0    74.7
 203    2:50   64.3    27   22.3   231     27.7   778.0    0.00       0    74.6
 203    3:00   64.5    27   20.7   225     26.6   778.0    0.00       0    74.4
 203    3:10   64.6    26   19.1   222     31.9   778.1    0.00       0    74.3
 203    3:20   64.7    26   16.9   218     28.6   778.2    0.00       0    74.2
 203    3:30   64.4    26   15.8   214     27.4   778.3    0.00       0    74.1
 203    3:40   64.1    27   15.5   212     22.6   778.4    0.00       0    74.0
 203    3:50   64.1    27   14.4   213     21.2   778.5    0.00       0    73.9
 203    4:00   63.8    27   12.8   205     22.6   778.5    0.00       0    73.8
 203    4:10   62.8    28    7.2   187     12.9   778.7    0.00       0    73.7
 203    4:20   62.5    28    6.3   159     10.6   778.7    0.00       1    73.6
 203    4:30   62.2    28    7.3   120     11.3   778.8    0.00       2    73.5
 203    4:40   62.3    28    4.2    88      8.1   779.0    0.00       5    73.4
 203    4:50   63.7    26    4.8   158     12.9   779.1    0.00      10    73.3
 203    5:00   64.8    26    7.3   167     11.2   779.1    0.00      26    73.2
 203    5:10   64.9    26    8.3   174     17.3   779.1    0.00      52    73.1
 203    5:20   65.2    26   10.4   184     15.7   779.1    0.00      86    73.0
 203    5:30   65.5    26    9.7   187     20.2   779.1    0.00     123    72.9
 203    5:40   66.2    26    5.9   181      9.5   779.2    0.00     154    72.8
 203    5:50   66.1    26    8.1   203     13.5   779.1    0.00     185    72.7
 203    6:00   66.4    26    5.4   203     10.5   779.2    0.00     217    72.6
 203    6:10   67.5    25    3.7   221     10.0   779.3    0.00     251    72.5
 203    6:20   67.4    26    7.7   162     13.1   779.3    0.00     285    72.4
 203    6:30   68.3    25    4.9   172      8.9   779.5    0.00     317    72.3
 203    6:40   68.1    24    4.9   105     10.5   779.6    0.00     352    72.2
 203    6:50   67.5    24    5.0   127      8.3   779.7    0.00     386    72.2
 203    7:00   67.6    25    6.1   125      9.9   779.7    0.00     421    72.1
 203    7:10   68.1    25    7.2   133     10.6   779.8    0.00     455    72.1
 203    7:20   68.5    25    7.7   135     12.1   779.8    0.00     489    72.0
 203    7:30   68.8    25    7.6   134     10.6   779.8    0.00     526    72.0
 203    7:40   69.1    25    8.1   135     12.4   779.9    0.00     497    72.0
 203    7:50   69.2    25    6.7   130      9.9   779.9    0.00     532    72.0
 203    8:00   70.5    24    6.3   129      9.6   779.9    0.00     620    72.0
 203    8:10   71.5    23    5.4   134     10.9   779.9    0.00     655    72.0
 203    8:20   72.0    22    4.8   128      9.0   779.9    0.00     689    72.1
 203    8:30   72.7    21    5.6   138     10.1   779.9    0.00     720    72.1
 203    8:40   74.1    20    4.8   128      9.3   780.0    0.00     748    72.2
 203    8:50   73.9    20    6.8   102     12.8   780.0    0.00     773    72.3
 203    9:00   73.5    21   11.2   117     17.5   780.0    0.00     786    72.4
 203    9:10   73.3    21   12.3   113     17.5   780.0    0.00     816    72.6
 203    9:20   73.2    20    8.8   138     14.9   780.0    0.00     846    72.7
 203    9:30   75.3    18   10.9   136     16.0   779.9    0.00     866    72.9
 203    9:40   74.7    18   10.4   145     16.2   779.9    0.00     895    73.1
 203    9:50   76.0    16    9.7   123     22.9   779.8    0.00     908    73.3
 203   10:00   76.7    16   17.8   133     27.2   779.5    0.00     879    73.5
 203   10:10   77.0    16   16.1   133     26.5   779.6    0.00     924    73.7
 203   10:20   77.5    16   11.3   174     19.2   779.8    0.00     956    74.0
 203   10:30   78.8    15   12.4   139     23.1   779.8    0.00    1003    74.2
 203   10:40   78.1    15   15.6   140     29.3   779.6    0.00    1019    74.5
 203   10:50   78.1    14   15.1   140     28.0   779.6    0.00    1030    74.8
 203   11:00   77.6    14   12.2   132     24.2   779.6    0.00     994    75.0
 203   11:10   79.5    14   20.8   132     34.0   779.3    0.00    1001    75.3
 203   11:20   78.9    14   21.0   140     35.1   779.2    0.00     988    75.6
 203   11:30   78.3    14   22.5   161     36.2   779.1    0.00     890    75.9
 203   11:40   79.0    13   22.1   151     35.7   779.0    0.00     914    76.2
 203   11:50   78.9    13   15.2   162     32.7   779.2    0.00     954    76.5
 203   12:00   80.0    12   22.2   136     34.3   778.9    0.00     955    76.8
 203   12:10   79.9    12   19.8   143     37.2   778.9    0.00     919    77.1
 203   12:20   80.0    11   25.7   149     47.0   778.6    0.00     988    77.4
 203   12:30   80.5    11   18.7   151     30.5   778.9    0.00    1027    77.7
 203   12:40   81.6    10   22.9   155     33.8   778.7    0.00    1026    78.0
 203   12:50   80.8    10   18.3   199     31.3   778.9    0.00    1017    78.3
 203   13:00   81.3    10   20.5   169     30.5   778.8    0.00    1003    78.5
 203   13:10   82.2     9   16.3   176     31.0   778.8    0.00     991    78.8
 203   13:20   82.0    10   17.7   202     30.5   778.8    0.00     979    79.1
 203   13:30   82.1     9   21.9   208     35.1   778.5    0.00     968    79.3
 203   13:40   81.9     9   20.2   186     29.3   778.5    0.00     953    79.6
 203   13:50   81.5     9   20.8   205     33.5   778.5    0.00     933    79.8
 203   14:00   81.6     9   17.6   189     35.1   778.5    0.00     917    80.1
 203   14:10   81.0     8   26.6   214     40.5   778.1    0.00     899    80.3
 203   14:20   81.3     7   23.6   213     36.3   778.2    0.00     883    80.6
 203   14:30   82.0     7   23.1   205     34.0   778.2    0.00     860    80.8
 203   14:40   81.6     8   27.5   208     40.4   777.9    0.00     832    81.1
 203   14:50   81.6     8   24.3   194     34.8   777.9    0.00     806    81.3
 203   15:00   81.4     7   25.6   208     36.6   777.9    0.00     781    81.5
 203   15:10   81.2     7   29.7   205     38.4   777.7    0.00     752    81.7
 203   15:20   81.4     8   22.1   200     36.4   777.9    0.00     721    81.9
 203   15:30   81.0     8   25.1   201     34.8   777.8    0.00     691    82.1
 203   15:40   81.3     8   22.2   197     40.1   777.8    0.00     660    82.2
 203   15:50   81.0     8   24.9   200     37.4   777.7    0.00     628    82.3
 203   16:00   81.1     8   25.7   188     36.9   777.6    0.00     596    82.5
 203   16:10   80.2     9   25.4   184     36.1   777.7    0.00     563    82.6
 203   16:20   80.1     9   27.7   206     44.3   777.5    0.00     529    82.7
 203   16:30   79.1    10   34.1   202     43.5   777.2    0.00     493    82.8
 203   16:40   79.1    10   30.8   209     42.0   777.3    0.00     459    82.8
 203   16:50   78.9    10   28.3   206     37.7   777.4    0.00     423    82.9
 203   17:00   78.8    10   25.8   206     37.0   777.6    0.00     391    82.9
 203   17:10   78.5    10   23.2   199     32.5   777.6    0.00     357    82.9
 203   17:20   78.3    10   30.9   208     43.7   777.3    0.00     324    83.0
 203   17:30   78.1    10   26.9   212     36.5   777.4    0.00     288    83.0
 203   17:40   77.8    10   26.3   210     36.8   777.4    0.00     253    83.0
 203   17:50   77.7    10   24.8   206     32.8   777.5    0.00     219    82.9
 203   18:00   77.3    10   24.2   202     33.8   777.6    0.00     186    82.9
 203   18:10   76.8    11   22.5   206     34.5   777.7    0.00     153    82.9
 203   18:20   76.5    11   25.0   203     34.0   777.6    0.00      90    82.8
 203   18:30   76.3    11   19.9   206     30.4   777.9    0.00      85    82.8
 203   18:40   75.9    11   24.7   214     34.2   777.8    0.00      50    82.7
 203   18:50   75.3    11   27.7   210     38.7   777.7    0.00      22    82.6
 203   19:00   74.7    12   26.3   213     37.1   777.8    0.00       6    82.5
 203   19:10   74.3    12   27.2   204     36.8   777.8    0.00       3    82.5
 203   19:20   74.1    12   30.2   207     36.8   777.6    0.00       1    82.3
 203   19:30   73.9    12   28.9   202     38.4   777.7    0.00       0    82.2
 203   19:40   73.4    12   27.3   204     32.4   777.8    0.00       0    82.1
 203   19:50   73.1    12   24.8   210     29.8   778.0    0.00       0    82.0
 203   20:00   73.0    12   26.8   210     34.1   778.0    0.00       0    81.9

Return to Warm Springs Summit, Nevada graphs page.


Western Regional Climate Center,wrcc@dri.edu